07:25
Airports
History
Links
Donate
Help keep this website running!
PayPal
Bitcoin
This page is community maintained. The information is intended for PC simulator navigation or reference.
Always use approved charts for navigation.
EDAL
Fuerstenwalde
Fuerstenwalde (EDAL)
Steinhöfel, Brandenburg, Germany (15518)
4
Lat/Lng:52° 23' 28" N / 14° 5' 46.01" E
52.39111 / 14.096113
Elevation:184'ft / 56mMSL
ID / ICAO:EDAL
Runways:1
Longest:11-29
Grass 805m / 2,640ft
Nearby Weather07:20 GMT 2018-01-19
Nearby weather at EDDB, Berlin Schoenefeld located 24.3 nautical miles from EDAL
Altimeter: 29.62
Visibility: 6.2 statute miles
Wind: 6 knots (from 260°)
Temp: 2°c / 36°f
Humidity: 93.1%

METAR: EDDB 190720Z 26006KT 9999 -DZ BKN010 BKN040 02/01 Q1003 TEMPO BKN009

(Powered by phpweather)
Nearby VORs <50NM
Nearby NDBs
Runway 11 / 29
Dimensions:804.7 x 39.9m 2640' x 131'ft
Surface:Grass
Runway 11 [A]Runway 29 [B]
Heading:114°TH 294°TH
Lat:
Lng:
52° 23' 33.47"N
14° 5' 26.77"E
52° 23' 22.52"N
14° 6' 5.25"E
User Notes and Comments
52° 23' 28" N / 14° 5' 46.01" E
Distance To
Airport ID:
Nearby Airports
(U) Eggersdorf Muencheberg 6.1 NM
EDCE N 354°
(C) Strausberg 15.1 NM
EDAY NNW 329°
(U) NEUHARDENBERG 16.5 NM
EDON NNE 21°
(C) Werneuchen 21.4 NM
EDBW NW 320°
(C) Berlin Schoenefeld 24.3 NM
EDDB ( WX ) W 267°
(U) EISENHUTTENSTADT 24.6 NM
EDAE ESE 122°
(U) [X] Berlin Tempelhof 29.7 NM
EDDI ( WX ) W 280°
VFR Chart
Flight Planning at SkyVector.com